sensor_id;sensor_type;location;lat;lon;timestamp;pressure;altitude;pressure_sealevel;temperature;humidity
58245;BME280;44550;43.864;25.986;2023-06-10T18:20:14;100312.97;;;29.05;35.09
58245;BME280;44550;43.864;25.986;2023-06-10T18:24:14;100325.81;;;28.53;35.60
58245;BME280;44550;43.864;25.986;2023-06-10T18:28:14;100339.91;;;28.57;36.12
58245;BME280;44550;43.864;25.986;2023-06-10T18:32:14;100355.00;;;28.71;37.12
58245;BME280;44550;43.864;25.986;2023-06-10T18:36:16;100358.41;;;28.62;37.92
58245;BME280;44550;43.864;25.986;2023-06-10T18:40:15;100363.09;;;28.47;35.96
58245;BME280;44550;43.864;25.986;2023-06-10T19:06:45;100377.13;;;26.57;38.92
58245;BME280;44550;43.864;25.986;2023-06-10T19:10:51;100378.00;;;26.43;39.50
58245;BME280;44550;43.864;25.986;2023-06-10T19:24:19;100379.78;;;25.73;42.19
58245;BME280;44550;43.864;25.986;2023-06-10T19:28:35;100393.56;;;25.67;42.24
58245;BME280;44550;43.864;25.986;2023-06-10T19:38:06;100403.31;;;24.46;47.52
58245;BME280;44550;43.864;25.986;2023-06-10T19:46:37;100395.63;;;24.55;48.37
58245;BME280;44550;43.864;25.986;2023-06-10T19:50:40;100397.47;;;25.01;48.03
58245;BME280;44550;43.864;25.986;2023-06-10T19:54:44;100395.06;;;25.12;48.04
58245;BME280;44550;43.864;25.986;2023-06-10T19:59:02;100391.84;;;25.21;48.11
58245;BME280;44550;43.864;25.986;2023-06-10T20:03:15;100400.44;;;25.26;47.83
58245;BME280;44550;43.864;25.986;2023-06-10T20:07:15;100407.53;;;25.27;47.84
58245;BME280;44550;43.864;25.986;2023-06-10T20:11:18;100407.72;;;25.08;48.49
58245;BME280;44550;43.864;25.986;2023-06-10T20:15:29;100408.28;;;25.29;48.46
58245;BME280;44550;43.864;25.986;2023-06-10T20:19:35;100396.47;;;25.48;47.98
58245;BME280;44550;43.864;25.986;2023-06-10T20:23:36;100404.50;;;25.48;48.04
58245;BME280;44550;43.864;25.986;2023-06-10T20:27:36;100395.41;;;25.36;48.34
58245;BME280;44550;43.864;25.986;2023-06-10T20:31:46;100393.97;;;25.30;48.57
58245;BME280;44550;43.864;25.986;2023-06-10T20:40:03;100395.53;;;24.73;49.92
58245;BME280;44550;43.864;25.986;2023-06-10T20:44:04;100386.94;;;24.68;50.05
58245;BME280;44550;43.864;25.986;2023-06-10T20:49:38;100389.66;;;24.66;50.49
58245;BME280;44550;43.864;25.986;2023-06-10T20:53:11;100389.81;;;24.15;52.00
58245;BME280;44550;43.864;25.986;2023-06-10T20:57:16;100390.38;;;23.89;53.02
58245;BME280;44550;43.864;25.986;2023-06-10T21:01:15;100389.75;;;23.84;53.22
58245;BME280;44550;43.864;25.986;2023-06-10T21:05:16;100394.50;;;23.79;53.13
58245;BME280;44550;43.864;25.986;2023-06-10T21:20:54;100397.28;;;23.93;53.06
58245;BME280;44550;43.864;25.986;2023-06-10T21:30:00;100379.19;;;24.47;51.46
58245;BME280;44550;43.864;25.986;2023-06-10T21:34:02;100385.63;;;24.43;51.63
58245;BME280;44550;43.864;25.986;2023-06-10T21:38:05;100380.56;;;24.54;51.53
58245;BME280;44550;43.864;25.986;2023-06-10T21:52:52;100384.91;;;24.24;52.54
58245;BME280;44550;43.864;25.986;2023-06-10T21:57:02;100379.13;;;24.00;53.65
58245;BME280;44550;43.864;25.986;2023-06-10T22:01:04;100377.03;;;23.89;53.76
58245;BME280;44550;43.864;25.986;2023-06-10T22:05:08;100373.84;;;23.65;55.00
58245;BME280;44550;43.864;25.986;2023-06-10T22:09:08;100371.19;;;23.48;55.67
58245;BME280;44550;43.864;25.986;2023-06-10T22:13:10;100363.13;;;23.49;55.54
58245;BME280;44550;43.864;25.986;2023-06-10T22:17:12;100369.78;;;23.40;56.12
58245;BME280;44550;43.864;25.986;2023-06-10T22:21:11;100360.53;;;23.30;56.67
58245;BME280;44550;43.864;25.986;2023-06-10T22:25:11;100358.56;;;23.51;55.78
58245;BME280;44550;43.864;25.986;2023-06-10T22:29:12;100352.59;;;23.46;56.29
58245;BME280;44550;43.864;25.986;2023-06-10T22:33:15;100357.50;;;23.20;56.88
58245;BME280;44550;43.864;25.986;2023-06-10T22:37:15;100349.97;;;23.11;58.02
58245;BME280;44550;43.864;25.986;2023-06-10T22:41:14;100354.91;;;23.36;57.48
58245;BME280;44550;43.864;25.986;2023-06-10T22:45:18;100349.69;;;23.84;55.93
58245;BME280;44550;43.864;25.986;2023-06-10T22:49:17;100349.56;;;24.03;56.90
58245;BME280;44550;43.864;25.986;2023-06-10T22:53:19;100353.81;;;24.38;57.10
58245;BME280;44550;43.864;25.986;2023-06-10T22:57:18;100354.69;;;24.55;59.94
58245;BME280;44550;43.864;25.986;2023-06-10T23:01:19;100350.63;;;24.32;61.28
58245;BME280;44550;43.864;25.986;2023-06-10T23:05:19;100354.38;;;23.96;62.50
58245;BME280;44550;43.864;25.986;2023-06-10T23:09:19;100348.81;;;23.67;63.62
58245;BME280;44550;43.864;25.986;2023-06-10T23:13:19;100353.13;;;23.70;64.28
58245;BME280;44550;43.864;25.986;2023-06-10T23:17:25;100352.59;;;23.46;66.35
58245;BME280;44550;43.864;25.986;2023-06-10T23:21:31;100347.16;;;23.32;66.66
58245;BME280;44550;43.864;25.986;2023-06-10T23:25:37;100340.22;;;23.28;66.45
58245;BME280;44550;43.864;25.986;2023-06-10T23:29:37;100342.81;;;23.29;65.59
58245;BME280;44550;43.864;25.986;2023-06-10T23:33:57;100339.53;;;23.41;64.15
58245;BME280;44550;43.864;25.986;2023-06-10T23:37:56;100339.69;;;23.38;64.14
58245;BME280;44550;43.864;25.986;2023-06-10T23:41:56;100336.22;;;23.36;63.48
58245;BME280;44550;43.864;25.986;2023-06-10T23:45:56;100332.69;;;23.36;62.98
58245;BME280;44550;43.864;25.986;2023-06-10T23:49:58;100327.06;;;23.25;62.56
58245;BME280;44550;43.864;25.986;2023-06-10T23:53:58;100339.63;;;23.23;61.63
58245;BME280;44550;43.864;25.986;2023-06-10T23:57:57;100332.03;;;23.15;61.67
